createdAt,value
2022-11-02T00:00:37.914Z,0.00
2022-11-02T00:01:38.038Z,0.00
2022-11-02T00:02:37.989Z,0.00
2022-11-02T00:03:37.882Z,0.00
2022-11-02T00:04:37.870Z,0.00
2022-11-02T00:05:37.879Z,0.00
2022-11-02T00:06:37.863Z,0.00
2022-11-02T00:07:37.838Z,0.00
2022-11-02T00:08:37.827Z,0.00
2022-11-02T00:09:37.812Z,0.00
2022-11-02T00:10:37.836Z,0.00
2022-11-02T00:11:37.801Z,0.00
2022-11-02T00:12:37.790Z,0.00
2022-11-02T00:13:37.771Z,0.00
2022-11-02T00:14:37.761Z,0.00
2022-11-02T00:15:37.752Z,0.00
2022-11-02T00:16:37.733Z,0.00
2022-11-02T00:17:37.718Z,0.00
2022-11-02T00:18:37.743Z,0.00
2022-11-02T00:19:37.696Z,0.00
2022-11-02T00:20:37.693Z,0.00
2022-11-02T00:21:37.706Z,0.00
2022-11-02T00:22:37.689Z,0.00
2022-11-02T00:23:37.679Z,0.00
2022-11-02T00:24:37.645Z,0.00
2022-11-02T00:25:37.638Z,0.00
2022-11-02T00:26:37.644Z,0.00
2022-11-02T00:27:37.611Z,0.00
2022-11-02T00:28:37.603Z,0.00
2022-11-02T00:29:37.584Z,0.00
2022-11-02T00:30:37.570Z,0.00
2022-11-02T00:31:37.583Z,0.00
2022-11-02T00:32:37.571Z,0.00
2022-11-02T00:33:37.547Z,0.00
2022-11-02T00:34:37.536Z,0.00
2022-11-02T00:35:37.526Z,0.00
2022-11-02T00:36:37.514Z,0.00
2022-11-02T00:37:37.513Z,0.00
2022-11-02T00:38:37.506Z,0.00
2022-11-02T00:39:37.478Z,0.00
2022-11-02T00:40:37.466Z,0.00
2022-11-02T00:41:37.465Z,0.00
2022-11-02T00:42:37.459Z,0.00
2022-11-02T00:43:37.426Z,0.00
2022-11-02T00:44:37.428Z,0.00
2022-11-02T00:45:37.417Z,0.00
2022-11-02T00:46:37.423Z,0.00
2022-11-02T00:47:37.463Z,0.00
2022-11-02T00:48:37.378Z,0.00
2022-11-02T00:49:37.360Z,0.00
2022-11-02T00:50:37.358Z,0.00
2022-11-02T00:51:37.354Z,0.00
2022-11-02T00:52:37.333Z,0.00
2022-11-02T00:53:37.331Z,0.00
2022-11-02T00:54:37.313Z,0.00
2022-11-02T00:55:37.314Z,0.00
2022-11-02T00:56:37.301Z,0.00
2022-11-02T00:57:37.269Z,0.00
2022-11-02T00:58:37.305Z,0.00
2022-11-02T00:59:37.257Z,0.00
2022-11-02T01:00:37.276Z,0.00
2022-11-02T01:01:37.378Z,0.00
2022-11-02T01:02:37.417Z,0.00
2022-11-02T01:03:37.218Z,0.00
2022-11-02T01:04:37.203Z,0.00
2022-11-02T01:05:37.202Z,0.00
2022-11-02T01:06:37.182Z,0.00
2022-11-02T01:07:37.167Z,0.00
2022-11-02T01:08:37.179Z,0.00
2022-11-02T01:09:37.137Z,0.00
2022-11-02T01:10:37.135Z,0.00
2022-11-02T01:11:37.153Z,0.00
2022-11-02T01:12:37.110Z,0.00
2022-11-02T01:13:37.096Z,0.00
2022-11-02T01:14:37.118Z,0.00
2022-11-02T01:15:37.095Z,0.00
2022-11-02T01:16:37.102Z,0.00
2022-11-02T01:17:37.064Z,0.00
2022-11-02T01:18:37.050Z,0.00
2022-11-02T01:19:37.034Z,0.00
2022-11-02T01:20:37.022Z,0.00
2022-11-02T01:21:37.004Z,0.00
2022-11-02T01:22:37.001Z,0.00
2022-11-02T01:23:36.981Z,0.00
2022-11-02T01:24:37.002Z,0.00
2022-11-02T01:25:36.988Z,0.00
2022-11-02T01:26:36.947Z,0.00
2022-11-02T01:27:36.944Z,0.00
2022-11-02T01:28:36.926Z,0.00
2022-11-02T01:29:36.917Z,0.00
2022-11-02T01:30:36.942Z,0.00
2022-11-02T01:31:36.892Z,0.00
2022-11-02T01:32:36.880Z,0.00
2022-11-02T01:33:36.893Z,0.00
2022-11-02T01:34:36.870Z,0.00
2022-11-02T01:35:36.857Z,0.00
2022-11-02T01:36:36.851Z,0.00
2022-11-02T01:37:36.831Z,0.00
2022-11-02T01:38:36.824Z,0.00
2022-11-02T01:39:36.805Z,0.00
2022-11-02T01:40:36.800Z,0.00
2022-11-02T01:41:36.802Z,0.00
2022-11-02T01:42:36.770Z,0.00
2022-11-02T01:43:36.761Z,0.00
2022-11-02T01:44:36.762Z,0.00
2022-11-02T01:45:36.744Z,0.00
2022-11-02T01:46:36.750Z,0.00
2022-11-02T01:47:36.723Z,0.00
2022-11-02T01:48:36.710Z,0.00
2022-11-02T01:49:36.710Z,0.00
2022-11-02T01:50:36.687Z,0.00
2022-11-02T01:51:36.679Z,0.00
2022-11-02T01:52:36.660Z,0.00
2022-11-02T01:53:36.664Z,0.00
2022-11-02T01:54:36.639Z,0.00
2022-11-02T01:55:36.638Z,0.00
2022-11-02T01:56:36.624Z,0.00
2022-11-02T01:57:36.624Z,0.00
2022-11-02T01:58:36.607Z,0.00
2022-11-02T01:59:36.579Z,0.00
2022-11-02T02:00:36.581Z,0.00
2022-11-02T02:01:36.637Z,0.00
2022-11-02T02:02:36.675Z,0.00
2022-11-02T02:03:36.543Z,0.00
2022-11-02T02:04:36.535Z,0.00
2022-11-02T02:05:36.523Z,0.00
2022-11-02T02:06:36.517Z,0.00
2022-11-02T02:07:36.503Z,0.00
2022-11-02T02:08:36.506Z,0.00
2022-11-02T02:09:36.480Z,0.00
2022-11-02T02:10:36.476Z,0.00
2022-11-02T02:11:36.493Z,0.00
2022-11-02T02:12:36.447Z,0.00
2022-11-02T02:13:36.434Z,0.00
2022-11-02T02:14:36.425Z,0.00
2022-11-02T02:15:36.429Z,0.00
2022-11-02T02:16:36.463Z,0.00
2022-11-02T02:17:36.400Z,0.00
2022-11-02T02:18:36.410Z,0.00
2022-11-02T02:19:36.376Z,0.00
2022-11-02T02:20:36.354Z,0.00
2022-11-02T02:21:36.343Z,0.00
2022-11-02T02:22:36.333Z,0.00
2022-11-02T02:23:36.322Z,0.00
2022-11-02T02:24:36.308Z,0.00
2022-11-02T02:25:36.330Z,0.00
2022-11-02T02:26:36.311Z,0.00
2022-11-02T02:27:36.287Z,0.00
2022-11-02T02:28:36.282Z,0.00
2022-11-02T02:29:36.259Z,0.00
2022-11-02T02:30:36.248Z,0.00
2022-11-02T02:31:36.243Z,0.00
2022-11-02T02:32:36.232Z,0.00
2022-11-02T02:33:36.234Z,0.00
2022-11-02T02:34:36.224Z,0.00
2022-11-02T02:35:36.206Z,0.00
2022-11-02T02:36:36.366Z,0.00
2022-11-02T02:37:36.168Z,0.00
2022-11-02T02:38:36.181Z,0.00
2022-11-02T02:39:36.138Z,0.00
2022-11-02T02:40:36.126Z,0.00
2022-11-02T02:41:36.123Z,0.00
2022-11-02T02:42:36.110Z,0.00
2022-11-02T02:43:36.110Z,0.00
2022-11-02T02:44:36.128Z,0.00
2022-11-02T02:45:36.084Z,0.00
2022-11-02T02:46:39.189Z,0.00
2022-11-02T02:47:36.057Z,0.00
2022-11-02T02:48:36.063Z,0.00
2022-11-02T02:49:36.029Z,0.00
2022-11-02T02:50:36.039Z,0.00
2022-11-02T02:51:36.011Z,0.00
2022-11-02T02:52:36.019Z,0.00
2022-11-02T02:53:36.006Z,0.00
2022-11-02T02:54:35.988Z,0.00
2022-11-02T02:55:35.981Z,0.00
2022-11-02T02:56:36.092Z,0.00
2022-11-02T02:57:35.956Z,0.00
2022-11-02T02:58:35.954Z,0.00
2022-11-02T02:59:35.937Z,0.00
2022-11-02T03:00:35.920Z,0.00
2022-11-02T03:01:36.122Z,0.00
2022-11-02T03:02:36.024Z,0.00
2022-11-02T03:03:35.880Z,0.00
2022-11-02T03:04:35.867Z,0.00
2022-11-02T03:05:35.859Z,0.00
2022-11-02T03:06:35.979Z,0.00
2022-11-02T03:07:35.825Z,0.00
2022-11-02T03:08:35.814Z,0.00
2022-11-02T03:09:35.815Z,0.00
2022-11-02T03:10:35.796Z,0.00
2022-11-02T03:11:35.899Z,0.00
2022-11-02T03:12:35.785Z,0.00
2022-11-02T03:13:35.785Z,0.00
2022-11-02T03:14:35.757Z,0.00
2022-11-02T03:15:35.754Z,0.00
2022-11-02T03:16:35.837Z,0.00
2022-11-02T03:17:35.736Z,0.00
2022-11-02T03:18:35.726Z,0.00
2022-11-02T03:19:35.701Z,0.00
2022-11-02T03:20:35.690Z,0.00
2022-11-02T03:21:35.741Z,0.00
2022-11-02T03:22:35.688Z,0.00
2022-11-02T03:23:35.652Z,0.00
2022-11-02T03:24:35.652Z,0.00
2022-11-02T03:25:35.634Z,0.00
2022-11-02T03:26:35.724Z,0.00
2022-11-02T03:27:35.628Z,0.00
2022-11-02T03:28:35.605Z,0.00
2022-11-02T03:29:35.588Z,0.00
2022-11-02T03:30:35.579Z,0.00
2022-11-02T03:31:35.626Z,0.00
2022-11-02T03:32:35.557Z,0.00
2022-11-02T03:33:35.574Z,0.00
2022-11-02T03:34:35.543Z,0.00
2022-11-02T03:35:35.530Z,0.00
2022-11-02T03:36:35.580Z,0.00
2022-11-02T03:37:35.503Z,0.00
2022-11-02T03:38:35.529Z,0.00
2022-11-02T03:39:35.480Z,0.00
2022-11-02T03:40:35.473Z,0.00
2022-11-02T03:41:35.474Z,0.00
2022-11-02T03:42:35.454Z,0.00
2022-11-02T03:43:35.431Z,0.00
2022-11-02T03:44:35.440Z,0.00
2022-11-02T03:45:35.420Z,0.00
2022-11-02T03:46:35.438Z,0.00
2022-11-02T03:47:35.396Z,0.00
2022-11-02T03:48:35.396Z,0.00
2022-11-02T03:49:35.382Z,0.00
2022-11-02T03:50:35.354Z,0.00
2022-11-02T03:51:35.380Z,0.00
2022-11-02T03:52:35.344Z,0.00
2022-11-02T03:53:35.338Z,0.00
2022-11-02T03:54:35.336Z,0.00
2022-11-02T03:55:35.315Z,0.00
2022-11-02T03:56:35.332Z,0.00
2022-11-02T03:57:35.327Z,0.00
2022-11-02T03:58:35.265Z,0.00
2022-11-02T03:59:35.255Z,0.00
2022-11-02T04:00:35.292Z,0.00
2022-11-02T04:01:35.495Z,0.00
2022-11-02T04:02:35.297Z,0.00
2022-11-02T04:03:35.225Z,0.00
2022-11-02T04:04:35.211Z,0.00
2022-11-02T04:05:35.208Z,0.00
2022-11-02T04:06:35.232Z,0.00
2022-11-02T04:07:35.211Z,0.00
2022-11-02T04:08:35.197Z,0.00
2022-11-02T04:09:35.153Z,0.00
2022-11-02T04:10:35.165Z,0.00
2022-11-02T04:11:35.175Z,0.00
2022-11-02T04:12:35.122Z,0.00
2022-11-02T04:13:35.109Z,0.00
2022-11-02T04:14:35.115Z,0.00
2022-11-02T04:15:35.092Z,0.00
2022-11-02T04:16:35.082Z,0.00
2022-11-02T04:17:35.067Z,0.00
2022-11-02T04:18:35.049Z,0.00
2022-11-02T04:19:35.071Z,0.00
2022-11-02T04:20:35.034Z,0.00
2022-11-02T04:21:35.012Z,0.00
2022-11-02T04:22:35.011Z,0.00
2022-11-02T04:23:35.001Z,0.00
2022-11-02T04:24:34.980Z,0.00
2022-11-02T04:25:34.982Z,0.00
2022-11-02T04:26:35.002Z,0.00
2022-11-02T04:27:34.965Z,0.00
2022-11-02T04:28:34.959Z,0.00
2022-11-02T04:29:34.944Z,0.00
2022-11-02T04:30:34.918Z,0.00
2022-11-02T04:31:34.911Z,0.00
2022-11-02T04:32:34.900Z,0.00
2022-11-02T04:33:34.910Z,0.00
2022-11-02T04:34:34.883Z,0.00
2022-11-02T04:35:34.875Z,0.00
2022-11-02T04:36:34.855Z,0.00
2022-11-02T04:37:34.849Z,0.00
2022-11-02T04:38:34.834Z,0.00
2022-11-02T04:39:34.825Z,0.00
2022-11-02T04:40:34.831Z,0.00
2022-11-02T04:41:34.802Z,0.00
2022-11-02T04:42:34.809Z,0.00
2022-11-02T04:43:34.800Z,0.00
2022-11-02T04:44:34.774Z,0.00
2022-11-02T04:45:34.757Z,0.00
2022-11-02T04:46:34.752Z,0.00
2022-11-02T04:47:34.733Z,0.00
2022-11-02T04:48:34.733Z,0.00
2022-11-02T04:49:34.733Z,0.00
2022-11-02T04:50:34.703Z,0.00
2022-11-02T04:51:34.711Z,0.00
2022-11-02T04:52:34.672Z,0.00
2022-11-02T04:53:34.669Z,0.00
2022-11-02T04:54:34.654Z,0.00
2022-11-02T04:55:34.656Z,0.00
2022-11-02T04:56:34.628Z,0.00
2022-11-02T04:57:34.679Z,0.00
2022-11-02T04:58:34.636Z,0.00
2022-11-02T04:59:34.617Z,0.00
2022-11-02T05:00:34.632Z,0.00
2022-11-02T05:01:34.714Z,0.00
2022-11-02T05:02:34.721Z,0.00
2022-11-02T05:03:34.549Z,0.00
2022-11-02T05:04:34.545Z,0.00
2022-11-02T05:05:34.528Z,0.00
2022-11-02T05:06:34.539Z,0.00
2022-11-02T05:07:34.525Z,0.00
2022-11-02T05:08:34.502Z,0.00
2022-11-02T05:09:34.511Z,0.00
2022-11-02T05:10:34.483Z,0.00
2022-11-02T05:11:34.482Z,0.00
2022-11-02T05:12:34.470Z,0.00
2022-11-02T05:13:34.459Z,0.00
2022-11-02T05:14:34.488Z,0.00
2022-11-02T05:15:34.430Z,0.00
2022-11-02T05:16:34.428Z,0.00
2022-11-02T05:17:34.427Z,0.00
2022-11-02T05:18:34.413Z,0.00
2022-11-02T05:19:34.379Z,0.00
2022-11-02T05:20:34.404Z,0.00
2022-11-02T05:21:34.385Z,0.00
2022-11-02T05:22:34.348Z,0.00
2022-11-02T05:23:34.331Z,0.00
2022-11-02T05:24:34.333Z,0.00
2022-11-02T05:25:34.320Z,0.00
2022-11-02T05:26:34.318Z,0.00
2022-11-02T05:27:34.311Z,0.00
2022-11-02T05:28:34.294Z,0.00
2022-11-02T05:29:34.266Z,0.00
2022-11-02T05:30:34.277Z,0.00
2022-11-02T05:31:34.253Z,0.00
2022-11-02T05:32:34.249Z,0.00
2022-11-02T05:33:34.247Z,0.00
2022-11-02T05:34:34.241Z,0.00
2022-11-02T05:35:34.201Z,0.00
2022-11-02T05:36:34.198Z,0.00
2022-11-02T05:37:34.181Z,0.00
2022-11-02T05:38:34.232Z,0.00
2022-11-02T05:39:34.164Z,0.00
2022-11-02T05:40:34.176Z,0.00
2022-11-02T05:41:34.148Z,0.00
2022-11-02T05:42:34.135Z,0.00
2022-11-02T05:43:34.115Z,0.00
2022-11-02T05:44:34.140Z,0.00
2022-11-02T05:45:34.108Z,0.00
2022-11-02T05:46:34.112Z,0.00
2022-11-02T05:47:34.087Z,0.00
2022-11-02T05:48:34.064Z,0.00
2022-11-02T05:49:34.052Z,0.00
2022-11-02T05:50:34.137Z,0.00
2022-11-02T05:51:34.041Z,0.00
2022-11-02T05:52:34.030Z,0.00
2022-11-02T05:53:34.166Z,4.00
2022-11-02T05:54:34.040Z,4.00
2022-11-02T05:55:33.990Z,0.00
2022-11-02T05:56:33.981Z,4.00
2022-11-02T05:57:33.989Z,4.00
2022-11-02T05:58:33.996Z,4.00
2022-11-02T05:59:33.942Z,4.00
2022-11-02T06:00:33.947Z,4.00
2022-11-02T06:01:34.117Z,8.00
2022-11-02T06:02:33.929Z,8.00
2022-11-02T06:03:33.898Z,12.00
2022-11-02T06:04:33.935Z,16.00
2022-11-02T06:05:34.062Z,16.00
2022-11-02T06:06:33.870Z,16.00
2022-11-02T06:07:33.873Z,24.00
2022-11-02T06:08:33.872Z,28.00
2022-11-02T06:09:33.850Z,36.00
2022-11-02T06:10:33.831Z,40.00
2022-11-02T06:11:33.819Z,44.00
2022-11-02T06:12:33.833Z,52.00
2022-11-02T06:13:33.822Z,64.00
2022-11-02T06:14:33.807Z,76.00
2022-11-02T06:15:33.765Z,88.00
2022-11-02T06:16:33.761Z,104.00
2022-11-02T06:17:33.774Z,120.00
2022-11-02T06:18:33.773Z,136.00
2022-11-02T06:19:33.744Z,152.00
2022-11-02T06:20:33.730Z,172.00
2022-11-02T06:21:33.709Z,188.00
2022-11-02T06:22:33.693Z,204.00
2022-11-02T06:23:33.698Z,224.00
2022-11-02T06:24:33.802Z,248.00
2022-11-02T06:25:33.684Z,268.00
2022-11-02T06:26:33.661Z,300.00
2022-11-02T06:27:33.658Z,332.00
2022-11-02T06:28:33.656Z,368.00
2022-11-02T06:29:33.620Z,408.00
2022-11-02T06:30:33.623Z,448.00
2022-11-02T06:31:33.604Z,492.00
2022-11-02T06:32:33.602Z,540.00
2022-11-02T06:33:33.626Z,584.00
2022-11-02T06:34:33.649Z,628.00
2022-11-02T06:35:34.163Z,672.00
2022-11-02T06:36:33.540Z,716.00
2022-11-02T06:37:33.565Z,760.00
2022-11-02T06:38:33.548Z,808.00
2022-11-02T06:39:33.603Z,848.00
2022-11-02T06:40:33.505Z,888.00
2022-11-02T06:41:33.511Z,916.00
2022-11-02T06:42:36.917Z,948.00
2022-11-02T06:43:34.465Z,968.00
2022-11-02T06:44:33.518Z,992.00
2022-11-02T06:45:33.485Z,1024.00
2022-11-02T06:46:33.445Z,1088.00
2022-11-02T06:47:33.431Z,1176.00
2022-11-02T06:48:35.638Z,1272.00
2022-11-02T06:49:33.419Z,1360.00
2022-11-02T06:50:33.412Z,1428.00
2022-11-02T06:51:33.388Z,1504.00
2022-11-02T06:52:33.366Z,1544.00
2022-11-02T06:53:33.367Z,1580.00
2022-11-02T06:54:33.407Z,1652.00
2022-11-02T06:55:33.360Z,1732.00
2022-11-02T06:56:33.343Z,1804.00
2022-11-02T06:57:33.314Z,1864.00
2022-11-02T06:58:33.294Z,1904.00
2022-11-02T06:59:33.290Z,1948.00
2022-11-02T07:00:33.456Z,1992.00
2022-11-02T07:01:33.473Z,2044.00
2022-11-02T07:02:33.415Z,2088.00
2022-11-02T07:03:33.261Z,2128.00
2022-11-02T07:04:33.258Z,2128.00
2022-11-02T07:05:33.234Z,2176.00
2022-11-02T07:06:33.234Z,2244.00
2022-11-02T07:07:33.195Z,2292.00
2022-11-02T07:08:33.200Z,2336.00
2022-11-02T07:09:33.193Z,2388.00
2022-11-02T07:10:33.178Z,2444.00
2022-11-02T07:11:33.161Z,2520.00
2022-11-02T07:12:33.181Z,2624.00
2022-11-02T07:13:33.177Z,2740.00
2022-11-02T07:14:33.145Z,2828.00
2022-11-02T07:15:33.136Z,2876.00
2022-11-02T07:16:33.147Z,2896.00
2022-11-02T07:17:33.111Z,2924.00
2022-11-02T07:18:33.113Z,2948.00
2022-11-02T07:19:33.090Z,2980.00
2022-11-02T07:20:33.070Z,3000.00
2022-11-02T07:21:33.097Z,3028.00
2022-11-02T07:22:33.077Z,3052.00
2022-11-02T07:23:33.056Z,3084.00
2022-11-02T07:24:33.033Z,3120.00
2022-11-02T07:25:33.009Z,3152.00
2022-11-02T07:26:33.023Z,3164.00
2022-11-02T07:27:32.987Z,3160.00
2022-11-02T07:28:32.991Z,3180.00
2022-11-02T07:29:33.018Z,3180.00
2022-11-02T07:30:32.952Z,3224.00
2022-11-02T07:31:32.963Z,3272.00
2022-11-02T07:32:32.951Z,3312.00
2022-11-02T07:33:33.205Z,3340.00
2022-11-02T07:34:33.005Z,3328.00
2022-11-02T07:35:32.982Z,3376.00
2022-11-02T07:36:32.899Z,3428.00
2022-11-02T07:37:32.904Z,3468.00
2022-11-02T07:38:32.993Z,3520.00
2022-11-02T07:39:32.857Z,3576.00
2022-11-02T07:40:32.944Z,3604.00
2022-11-02T07:41:32.841Z,3636.00
2022-11-02T07:42:32.848Z,3684.00
2022-11-02T07:43:32.812Z,3724.00
2022-11-02T07:44:32.852Z,3752.00
2022-11-02T07:45:32.810Z,3776.00
2022-11-02T07:46:32.785Z,3796.00
2022-11-02T07:47:32.784Z,3816.00
2022-11-02T07:48:32.773Z,3840.00
2022-11-02T07:49:32.749Z,3868.00
2022-11-02T07:50:32.754Z,3904.00
2022-11-02T07:51:32.761Z,3916.00
2022-11-02T07:52:32.725Z,3900.00
2022-11-02T07:53:32.702Z,3904.00
2022-11-02T07:54:32.709Z,3864.00
2022-11-02T07:55:32.727Z,4036.00
2022-11-02T07:56:32.686Z,4064.00
2022-11-02T07:57:32.663Z,4052.00
2022-11-02T07:58:32.639Z,4096.00
2022-11-02T07:59:32.628Z,3972.00
2022-11-02T08:00:32.627Z,4108.00
2022-11-02T08:01:32.693Z,3992.00
2022-11-02T08:02:32.623Z,4212.00
2022-11-02T08:03:32.628Z,4236.00
2022-11-02T08:04:32.608Z,4228.00
2022-11-02T08:05:32.601Z,4288.00
2022-11-02T08:06:32.601Z,4296.00
2022-11-02T08:07:32.564Z,4308.00
2022-11-02T08:08:32.552Z,4320.00
2022-11-02T08:09:32.535Z,4316.00
2022-11-02T08:10:35.539Z,4320.00
2022-11-02T08:11:33.537Z,4344.00
2022-11-02T08:12:32.502Z,4356.00
2022-11-02T08:13:32.999Z,4056.00
2022-11-02T08:14:32.590Z,4196.00
2022-11-02T08:15:32.487Z,4412.00
2022-11-02T08:16:32.449Z,4428.00
2022-11-02T08:17:32.439Z,4396.00
2022-11-02T08:18:32.448Z,4352.00
2022-11-02T08:19:32.419Z,4476.00
2022-11-02T08:20:32.728Z,4488.00
2022-11-02T08:21:32.422Z,4500.00
2022-11-02T08:22:32.383Z,4512.00
2022-11-02T08:23:32.392Z,4508.00
2022-11-02T08:24:32.394Z,4524.00
2022-11-02T08:25:33.181Z,4544.00
2022-11-02T08:26:32.374Z,4556.00
2022-11-02T08:27:32.320Z,4568.00
2022-11-02T08:28:32.351Z,4588.00
2022-11-02T08:29:33.169Z,4600.00
2022-11-02T08:30:32.317Z,4620.00
2022-11-02T08:31:32.326Z,4644.00
2022-11-02T08:32:32.270Z,4664.00
2022-11-02T08:33:32.274Z,4684.00
2022-11-02T08:34:32.273Z,4720.00
2022-11-02T08:35:32.241Z,4732.00
2022-11-02T08:36:32.403Z,4392.00
2022-11-02T08:37:33.196Z,4456.00
2022-11-02T08:38:32.252Z,4636.00
2022-11-02T08:39:32.213Z,4480.00
2022-11-02T08:40:32.185Z,4312.00
2022-11-02T08:41:32.171Z,4328.00
2022-11-02T08:42:32.208Z,4452.00
2022-11-02T08:43:32.184Z,4812.00
2022-11-02T08:44:32.150Z,4828.00
2022-11-02T08:45:48.029Z,4836.00
2022-11-02T08:46:33.124Z,4872.00
2022-11-02T08:47:32.113Z,4928.00
2022-11-02T08:48:32.114Z,4728.00
2022-11-02T08:49:32.122Z,4940.00
2022-11-02T08:50:32.067Z,5132.00
2022-11-02T08:51:32.131Z,5452.00
2022-11-02T08:52:34.583Z,5864.00
2022-11-02T08:53:32.058Z,5884.00
2022-11-02T08:54:32.030Z,5484.00
2022-11-02T08:55:32.020Z,5136.00
2022-11-02T08:56:32.027Z,5020.00
2022-11-02T08:57:32.028Z,5092.00
2022-11-02T08:58:31.998Z,5088.00
2022-11-02T08:59:32.060Z,5132.00
2022-11-02T09:00:32.003Z,4864.00
2022-11-02T09:01:32.088Z,5244.00
2022-11-02T09:02:32.030Z,5020.00
2022-11-02T09:03:31.944Z,5200.00
2022-11-02T09:04:31.921Z,5200.00
2022-11-02T09:05:31.975Z,5612.00
2022-11-02T09:06:31.905Z,5356.00
2022-11-02T09:07:31.912Z,5384.00
2022-11-02T09:08:31.876Z,5300.00
2022-11-02T09:09:31.908Z,5100.00
2022-11-02T09:10:31.866Z,4516.00
2022-11-02T09:11:31.858Z,5044.00
2022-11-02T09:12:31.848Z,4948.00
2022-11-02T09:13:31.923Z,5096.00
2022-11-02T09:14:32.216Z,5064.00
2022-11-02T09:15:31.813Z,4736.00
2022-11-02T09:16:31.816Z,4932.00
2022-11-02T09:17:32.768Z,5052.00
2022-11-02T09:18:32.712Z,5012.00
2022-11-02T09:19:31.848Z,5080.00
2022-11-02T09:20:31.819Z,4800.00
2022-11-02T09:21:31.770Z,5128.00
2022-11-02T09:22:31.728Z,5100.00
2022-11-02T09:23:31.699Z,4552.00
2022-11-02T09:24:31.685Z,5096.00
2022-11-02T09:25:31.701Z,5088.00
2022-11-02T09:26:31.697Z,5080.00
2022-11-02T09:27:31.702Z,5112.00
2022-11-02T09:28:31.780Z,5132.00
2022-11-02T09:29:31.719Z,5152.00
2022-11-02T09:30:31.677Z,5168.00
2022-11-02T09:31:32.730Z,5188.00
2022-11-02T09:32:31.634Z,5176.00
2022-11-02T09:33:31.699Z,5152.00
2022-11-02T09:34:31.642Z,5156.00
2022-11-02T09:35:31.609Z,5148.00
2022-11-02T09:36:31.614Z,4724.00
2022-11-02T09:37:31.563Z,4508.00
2022-11-02T09:38:31.709Z,5200.00
2022-11-02T09:39:31.534Z,5236.00
2022-11-02T09:40:31.504Z,4764.00
2022-11-02T09:41:31.515Z,5240.00
2022-11-02T09:42:31.504Z,5200.00
2022-11-02T09:43:32.860Z,5164.00
2022-11-02T09:44:31.471Z,5152.00
2022-11-02T09:45:31.459Z,5176.00
2022-11-02T09:46:31.472Z,4868.00
2022-11-02T09:48:32.672Z,5232.00
2022-11-02T09:49:31.418Z,5224.00
2022-11-02T09:50:31.427Z,5208.00
2022-11-02T09:51:31.397Z,5204.00
2022-11-02T09:52:31.392Z,5228.00
2022-11-02T09:53:31.391Z,5264.00
2022-11-02T09:54:31.466Z,5276.00
2022-11-02T09:55:31.367Z,5248.00
2022-11-02T09:56:31.364Z,5224.00
2022-11-02T09:57:31.321Z,5244.00
2022-11-02T09:58:31.308Z,5228.00
2022-11-02T09:59:31.295Z,5096.00
2022-11-02T10:00:31.309Z,5212.00
2022-11-02T10:01:31.323Z,5216.00
2022-11-02T10:02:31.298Z,5208.00
2022-11-02T10:03:31.267Z,5200.00
2022-11-02T10:04:31.275Z,5204.00
2022-11-02T10:05:31.248Z,5216.00
2022-11-02T10:06:31.216Z,5144.00
2022-11-02T10:07:31.239Z,5260.00
2022-11-02T10:08:31.216Z,5272.00
2022-11-02T10:09:31.182Z,4616.00
2022-11-02T10:10:31.186Z,5308.00
2022-11-02T10:11:31.241Z,5388.00
2022-11-02T10:12:31.175Z,5464.00
2022-11-02T10:13:31.215Z,5512.00
2022-11-02T10:14:31.152Z,5544.00
2022-11-02T10:15:31.122Z,5552.00
2022-11-02T10:16:31.114Z,5532.00
2022-11-02T10:17:31.111Z,5580.00
2022-11-02T10:18:31.108Z,5572.00
2022-11-02T10:19:31.101Z,5436.00
2022-11-02T10:20:31.063Z,5412.00
2022-11-02T10:21:31.049Z,5444.00
2022-11-02T10:22:31.054Z,5436.00
2022-11-02T10:23:31.030Z,5612.00
2022-11-02T10:24:31.033Z,5608.00
2022-11-02T10:25:31.008Z,5516.00
2022-11-02T10:26:31.201Z,5556.00
2022-11-02T10:27:31.413Z,5680.00
2022-11-02T10:28:31.041Z,5720.00
2022-11-02T10:29:30.968Z,5656.00
2022-11-02T10:30:30.944Z,5552.00
2022-11-02T10:31:31.683Z,5524.00
2022-11-02T10:32:31.004Z,5556.00
2022-11-02T10:33:30.941Z,5532.00
2022-11-02T10:34:30.937Z,5520.00
2022-11-02T10:35:45.435Z,5512.00
2022-11-02T10:36:31.928Z,5524.00
2022-11-02T10:37:30.906Z,5600.00
2022-11-02T10:38:30.879Z,5632.00
2022-11-02T10:39:30.856Z,5608.00
2022-11-02T10:40:30.889Z,5632.00
2022-11-02T10:41:30.844Z,5712.00
2022-11-02T10:42:30.857Z,5832.00
2022-11-02T10:43:30.846Z,5972.00
2022-11-02T10:44:30.806Z,6152.00
2022-11-02T10:45:30.781Z,6424.00
2022-11-02T10:46:30.790Z,6404.00
2022-11-02T10:47:30.759Z,6072.00
2022-11-02T10:48:30.777Z,5776.00
2022-11-02T10:49:30.854Z,5676.00
2022-11-02T10:50:30.809Z,5760.00
2022-11-02T10:51:30.723Z,5788.00
2022-11-02T10:52:30.738Z,5716.00
2022-11-02T10:53:46.418Z,5672.00
2022-11-02T10:54:34.515Z,5636.00
2022-11-02T10:55:30.655Z,5612.00
2022-11-02T10:56:30.663Z,5724.00
2022-11-02T10:57:30.648Z,5840.00
2022-11-02T10:58:30.645Z,5844.00
2022-11-02T10:59:30.612Z,5848.00
2022-11-02T11:00:30.706Z,5812.00
2022-11-02T11:01:30.750Z,5744.00
2022-11-02T11:02:30.587Z,5752.00
2022-11-02T11:03:30.583Z,5852.00
2022-11-02T11:04:30.658Z,5916.00
2022-11-02T11:05:30.571Z,5972.00
2022-11-02T11:06:30.572Z,5708.00
2022-11-02T11:07:30.622Z,6172.00
2022-11-02T11:08:30.525Z,6284.00
2022-11-02T11:09:30.517Z,6356.00
2022-11-02T11:10:30.509Z,6428.00
2022-11-02T11:11:30.518Z,6480.00
2022-11-02T11:12:30.491Z,5544.00
2022-11-02T11:15:47.088Z,5908.00
2022-11-02T11:16:31.457Z,5932.00
2022-11-02T11:19:39.410Z,5416.00
2022-11-02T11:20:31.469Z,5164.00
2022-11-02T11:21:30.377Z,5192.00
2022-11-02T11:22:30.393Z,6152.00
2022-11-02T11:23:30.394Z,5712.00
2022-11-02T11:24:30.431Z,6432.00
2022-11-02T11:25:30.332Z,6312.00
2022-11-02T11:26:30.339Z,6828.00
2022-11-02T11:27:30.316Z,6644.00
2022-11-02T11:28:30.301Z,6568.00
2022-11-02T11:29:30.361Z,5520.00
2022-11-02T11:31:00.511Z,6312.00
2022-11-02T11:31:31.272Z,6368.00
2022-11-02T11:32:30.968Z,6420.00
2022-11-02T11:33:30.238Z,6404.00
2022-11-02T11:34:30.261Z,6288.00
2022-11-02T11:35:30.226Z,6192.00
2022-11-02T11:36:30.246Z,5504.00
2022-11-02T11:37:30.233Z,5784.00
2022-11-02T11:38:30.246Z,5056.00
2022-11-02T11:39:30.178Z,4972.00
2022-11-02T11:40:30.183Z,4856.00
2022-11-02T11:41:30.171Z,4980.00
2022-11-02T11:42:30.259Z,6320.00
2022-11-02T11:43:30.174Z,6372.00
2022-11-02T11:44:30.135Z,5480.00
2022-11-02T11:45:30.107Z,5312.00
2022-11-02T11:46:30.102Z,5752.00
2022-11-02T11:47:30.089Z,5980.00
2022-11-02T11:48:30.088Z,5936.00
2022-11-02T11:49:48.097Z,4848.00
2022-11-02T11:50:31.196Z,5164.00
2022-11-02T11:51:30.045Z,6244.00
2022-11-02T11:52:32.133Z,5980.00
2022-11-02T11:53:30.037Z,6488.00
2022-11-02T11:54:30.069Z,6492.00
2022-11-02T11:55:30.065Z,6676.00
2022-11-02T11:56:29.996Z,6788.00
2022-11-02T11:57:30.042Z,7064.00
2022-11-02T11:58:30.683Z,7400.00
2022-11-02T11:59:29.948Z,7760.00
2022-11-02T12:00:29.961Z,6576.00
2022-11-02T12:01:30.136Z,7800.00
2022-11-02T12:02:30.061Z,8016.00
2022-11-02T12:03:29.922Z,8000.00
2022-11-02T12:04:29.893Z,7900.00
2022-11-02T12:05:29.894Z,7820.00
2022-11-02T12:06:29.954Z,7884.00
2022-11-02T12:07:29.865Z,8196.00
2022-11-02T12:08:29.868Z,8704.00
2022-11-02T12:09:29.863Z,9016.00
2022-11-02T12:10:29.858Z,9160.00
2022-11-02T12:11:29.861Z,9320.00
2022-11-02T12:12:30.225Z,9380.00
2022-11-02T12:13:29.837Z,9524.00
2022-11-02T12:14:29.795Z,9452.00
2022-11-02T12:15:29.787Z,9212.00
2022-11-02T12:16:29.794Z,9152.00
2022-11-02T12:17:29.758Z,9340.00
2022-11-02T12:18:29.775Z,9588.00
2022-11-02T12:19:33.012Z,9736.00
2022-11-02T12:20:29.778Z,9732.00
2022-11-02T12:21:29.744Z,9560.00
2022-11-02T12:22:29.744Z,9428.00
2022-11-02T12:23:29.748Z,9144.00
2022-11-02T12:24:29.691Z,8804.00
2022-11-02T12:25:29.656Z,8640.00
2022-11-02T12:26:29.698Z,8632.00
2022-11-02T12:27:29.641Z,8660.00
2022-11-02T12:28:29.623Z,8620.00
2022-11-02T12:29:29.623Z,8556.00
2022-11-02T12:30:29.614Z,8444.00
2022-11-02T12:31:29.670Z,8392.00
2022-11-02T12:32:29.594Z,8420.00
2022-11-02T12:33:29.585Z,8448.00
2022-11-02T12:34:29.567Z,8572.00
2022-11-02T12:35:30.628Z,8868.00
2022-11-02T12:36:29.553Z,9160.00
2022-11-02T12:37:40.310Z,9396.00
2022-11-02T12:38:31.232Z,9596.00
2022-11-02T12:39:29.565Z,9672.00
2022-11-02T12:40:29.519Z,6880.00
2022-11-02T12:41:29.493Z,6864.00
2022-11-02T12:42:29.520Z,7008.00
2022-11-02T12:43:29.482Z,9968.00
2022-11-02T12:44:29.461Z,9988.00
2022-11-02T12:45:33.261Z,9760.00